Mount Rushmore Natl Memorial, South Dakota
Current Conditions -  °F | °C
As of 2:53 AM on Saturday 01 Nov 2014 (Local Time) from KCUT Reporting Station
Clear Clear  
Wind Chill: 32°   Ceiling: Unl
Heat Index: 37°   Visibility: 10mi
Dew Point: 27°   Wind: 6mph
Humidity: 67%   Direction: 270°W
Pressure: 29.92"   Gusts: NA
Location:  43.88°N, 103.45°W
Report Text: KCUT 010853Z AUTO 27005KT 10SM CLR 03/M03 A2992 RMK AO2 SLP125 T00281028 56007
Loading
Personal Weather Stations






























Interactive Weather Map
Tropical Storm Tracking
New forecast layout! Learn more

10-Day Weather Forecast

Advertisements
Track Severe Weather on mobile